createdAt,value
2018-09-06T00:00:49.516Z,120.30
2018-09-06T00:03:18.818Z,120.83
2018-09-06T00:05:47.128Z,121.07
2018-09-06T00:08:15.406Z,160.13
2018-09-06T00:10:43.901Z,198.93
2018-09-06T00:13:12.175Z,212.80
2018-09-06T00:15:40.442Z,228.00
2018-09-06T00:18:08.726Z,244.23
2018-09-06T00:20:37.007Z,243.33
2018-09-06T00:23:05.454Z,230.80
2018-09-06T00:25:34.175Z,223.83
2018-09-06T00:28:02.771Z,187.40
2018-09-06T00:30:31.080Z,185.83
2018-09-06T00:32:59.326Z,181.03
2018-09-06T00:35:27.622Z,178.87
2018-09-06T00:37:56.072Z,175.67
2018-09-06T00:40:24.359Z,170.40
2018-09-06T00:42:52.643Z,167.27
2018-09-06T00:45:20.955Z,172.50
2018-09-06T00:47:49.234Z,168.50
2018-09-06T00:50:19.400Z,158.77
2018-09-06T00:52:49.221Z,159.47
2018-09-06T00:55:17.892Z,155.30
2018-09-06T00:57:46.189Z,119.47
2018-09-06T01:00:14.667Z,113.73
2018-09-06T01:02:43.454Z,104.90
2018-09-06T01:05:11.744Z,87.93
2018-09-06T01:07:39.995Z,84.83
2018-09-06T01:10:08.475Z,99.00
2018-09-06T01:12:36.738Z,77.90
2018-09-06T01:15:05.051Z,83.30
2018-09-06T01:17:33.310Z,84.17
2018-09-06T01:20:01.715Z,78.97
2018-09-06T01:22:30.072Z,71.63
2018-09-06T01:24:58.337Z,72.17
2018-09-06T01:27:26.651Z,73.03
2018-09-06T01:29:54.919Z,67.10
2018-09-06T01:32:23.581Z,67.13
2018-09-06T01:34:51.858Z,63.77
2018-09-06T01:37:20.195Z,63.40
2018-09-06T01:39:48.473Z,65.43
2018-09-06T01:42:16.739Z,60.00
2018-09-06T01:44:45.001Z,57.97
2018-09-06T01:47:13.301Z,54.90
2018-09-06T01:49:41.550Z,55.30
2018-09-06T01:52:09.829Z,54.37
2018-09-06T01:54:38.092Z,49.53
2018-09-06T01:57:06.390Z,51.40
2018-09-06T01:59:38.919Z,57.10
2018-09-06T02:02:07.810Z,48.70
2018-09-06T02:04:36.688Z,45.23
2018-09-06T02:07:05.190Z,47.30
2018-09-06T02:09:33.486Z,45.50
2018-09-06T02:12:01.802Z,40.70
2018-09-06T02:14:30.068Z,43.03
2018-09-06T02:16:58.364Z,39.30
2018-09-06T02:19:26.634Z,41.00
2018-09-06T02:21:54.895Z,39.03
2018-09-06T02:24:23.205Z,40.70
2018-09-06T02:26:51.535Z,36.13
2018-09-06T02:29:19.798Z,48.53
2018-09-06T02:31:48.071Z,45.97
2018-09-06T02:34:16.381Z,45.77
2018-09-06T02:36:44.665Z,42.93
2018-09-06T02:39:12.944Z,37.10
2018-09-06T02:41:41.231Z,34.07
2018-09-06T02:44:09.626Z,36.07
2018-09-06T02:46:37.908Z,35.90
2018-09-06T02:49:06.233Z,34.30
2018-09-06T02:51:34.514Z,34.77
2018-09-06T02:54:02.869Z,34.73
2018-09-06T02:56:31.087Z,43.50
2018-09-06T02:58:59.367Z,43.50
2018-09-06T03:01:27.644Z,40.03
2018-09-06T03:03:55.919Z,38.00
2018-09-06T03:06:24.206Z,40.00
2018-09-06T03:08:52.475Z,31.27
2018-09-06T03:11:24.614Z,33.57
2018-09-06T03:13:53.372Z,30.53
2018-09-06T03:16:21.666Z,28.13
2018-09-06T03:18:50.087Z,29.83
2018-09-06T03:21:18.398Z,31.90
2018-09-06T03:23:46.675Z,28.83
2018-09-06T03:26:19.304Z,27.20
2018-09-06T03:28:49.159Z,27.73
2018-09-06T03:31:17.514Z,24.43
2018-09-06T03:33:46.324Z,25.23
2018-09-06T03:36:14.903Z,29.40
2018-09-06T03:38:43.290Z,25.60
2018-09-06T03:41:11.593Z,23.70
2018-09-06T03:43:39.901Z,24.20
2018-09-06T03:46:08.764Z,30.77
2018-09-06T03:48:37.203Z,25.20
2018-09-06T03:51:05.998Z,30.70
2018-09-06T03:53:34.488Z,36.70
2018-09-06T03:56:02.793Z,30.80
2018-09-06T03:58:31.089Z,30.80
2018-09-06T04:00:59.357Z,31.03
2018-09-06T04:03:27.695Z,27.10
2018-09-06T04:05:56.004Z,31.73
2018-09-06T04:08:24.283Z,27.47
2018-09-06T04:10:52.559Z,26.87
2018-09-06T04:13:20.846Z,26.70
2018-09-06T04:15:49.112Z,26.13
2018-09-06T04:18:17.414Z,24.07
2018-09-06T04:20:45.959Z,23.50
2018-09-06T04:23:14.278Z,22.83
2018-09-06T04:25:42.589Z,22.43
2018-09-06T04:28:10.883Z,23.57
2018-09-06T04:30:39.210Z,22.33
2018-09-06T04:33:07.598Z,21.00
2018-09-06T04:35:35.925Z,20.33
2018-09-06T04:38:04.207Z,18.83
2018-09-06T04:40:32.534Z,19.40
2018-09-06T04:43:00.821Z,19.50
2018-09-06T04:45:29.182Z,17.93
2018-09-06T04:47:57.465Z,15.60
2018-09-06T04:50:25.810Z,17.43
2018-09-06T04:52:54.099Z,17.20
2018-09-06T04:55:22.495Z,18.10
2018-09-06T04:57:50.715Z,16.43
2018-09-06T05:00:19.005Z,16.40
2018-09-06T05:02:47.416Z,17.20
2018-09-06T05:05:15.728Z,15.13
2018-09-06T05:07:44.005Z,13.97
2018-09-06T05:10:12.279Z,14.67
2018-09-06T05:12:40.664Z,13.80
2018-09-06T05:15:09.002Z,15.77
2018-09-06T05:17:37.539Z,14.10
2018-09-06T05:20:06.125Z,13.93
2018-09-06T05:22:34.415Z,13.77
2018-09-06T05:25:03.135Z,12.63
2018-09-06T05:27:31.463Z,12.20
2018-09-06T05:29:59.744Z,14.13
2018-09-06T05:32:28.044Z,13.20
2018-09-06T05:34:56.369Z,10.70
2018-09-06T05:37:24.635Z,11.20
2018-09-06T05:39:52.934Z,11.20
2018-09-06T05:42:21.250Z,12.20
2018-09-06T05:44:49.558Z,11.20
2018-09-06T05:47:17.922Z,9.23
2018-09-06T05:49:46.251Z,10.97
2018-09-06T05:52:14.564Z,11.10
2018-09-06T05:54:42.966Z,10.53
2018-09-06T05:57:11.373Z,12.30
2018-09-06T05:59:39.701Z,11.47
2018-09-06T06:02:07.950Z,10.63
2018-09-06T06:04:36.507Z,9.47
2018-09-06T06:07:04.887Z,9.60
2018-09-06T06:09:33.170Z,9.43
2018-09-06T06:12:01.620Z,12.00
2018-09-06T06:14:29.946Z,9.90
2018-09-06T06:16:58.242Z,10.23
2018-09-06T06:19:26.563Z,7.60
2018-09-06T06:21:54.823Z,8.80
2018-09-06T06:24:23.111Z,7.70
2018-09-06T06:26:51.467Z,8.97
2018-09-06T06:29:19.752Z,9.90
2018-09-06T06:31:48.078Z,7.30
2018-09-06T06:34:16.327Z,8.37
2018-09-06T06:36:44.618Z,7.47
2018-09-06T06:39:13.635Z,8.13
2018-09-06T06:41:41.922Z,9.17
2018-09-06T06:44:10.592Z,7.90
2018-09-06T06:46:38.890Z,9.27
2018-09-06T06:49:07.339Z,7.67
2018-09-06T06:51:35.664Z,8.93
2018-09-06T06:54:03.965Z,8.53
2018-09-06T06:56:32.398Z,10.03
2018-09-06T06:59:00.688Z,8.43
2018-09-06T07:01:28.959Z,7.93
2018-09-06T07:03:57.313Z,7.87
2018-09-06T07:06:25.583Z,8.43
2018-09-06T07:08:53.879Z,7.47
2018-09-06T07:11:22.168Z,7.80
2018-09-06T07:13:50.470Z,7.10
2018-09-06T07:16:18.759Z,8.03
2018-09-06T07:18:47.049Z,8.17
2018-09-06T07:21:15.354Z,7.03
2018-09-06T07:23:43.642Z,7.30
2018-09-06T07:26:11.923Z,6.13
2018-09-06T07:28:40.268Z,7.60
2018-09-06T07:31:08.578Z,7.40
2018-09-06T07:33:36.856Z,7.07
2018-09-06T07:36:05.160Z,8.03
2018-09-06T07:38:33.632Z,16.83
2018-09-06T07:41:01.921Z,21.10
2018-09-06T07:43:30.228Z,31.57
2018-09-06T07:45:58.604Z,34.40
2018-09-06T07:48:26.983Z,55.43
2018-09-06T07:50:55.293Z,60.57
2018-09-06T07:53:23.566Z,63.30
2018-09-06T07:55:51.899Z,69.83
2018-09-06T07:58:20.349Z,69.73
2018-09-06T08:00:48.643Z,65.73
2018-09-06T08:03:16.945Z,71.57
2018-09-06T08:05:45.230Z,68.43
2018-09-06T08:08:13.524Z,73.57
2018-09-06T08:10:41.810Z,65.83
2018-09-06T08:13:10.111Z,70.50
2018-09-06T08:15:38.397Z,65.00
2018-09-06T08:18:06.674Z,59.67
2018-09-06T08:20:34.999Z,82.70
2018-09-06T08:23:03.300Z,71.37
2018-09-06T08:25:31.958Z,70.20
2018-09-06T08:28:00.222Z,70.77
2018-09-06T08:30:28.502Z,68.07
2018-09-06T08:32:56.935Z,69.07
2018-09-06T08:35:25.215Z,58.67
2018-09-06T08:37:53.479Z,79.00
2018-09-06T08:40:21.793Z,82.00
2018-09-06T08:42:50.051Z,81.47
2018-09-06T08:45:18.345Z,81.60
2018-09-06T08:47:46.627Z,75.07
2018-09-06T08:50:14.946Z,79.33
2018-09-06T08:52:43.214Z,72.47
2018-09-06T08:55:11.509Z,68.20
2018-09-06T08:57:39.807Z,66.60
2018-09-06T09:00:08.115Z,90.23
2018-09-06T09:02:36.467Z,86.77
2018-09-06T09:05:04.899Z,94.23
2018-09-06T09:07:33.255Z,149.30
2018-09-06T09:10:01.544Z,103.13
2018-09-06T09:12:29.879Z,117.20
2018-09-06T09:14:58.116Z,117.60
2018-09-06T09:17:26.395Z,131.33
2018-09-06T09:19:54.754Z,116.53
2018-09-06T09:22:23.146Z,110.57
2018-09-06T09:24:51.395Z,111.20
2018-09-06T09:27:19.693Z,136.43
2018-09-06T09:29:48.050Z,139.47
2018-09-06T09:32:16.428Z,146.37
2018-09-06T09:34:44.741Z,137.10
2018-09-06T09:37:13.030Z,130.70
2018-09-06T09:39:41.328Z,120.53
2018-09-06T09:42:09.955Z,108.70
2018-09-06T09:44:38.306Z,135.00
2018-09-06T09:49:34.159Z,113.53
2018-09-06T09:52:02.530Z,102.80
2018-09-06T09:54:30.823Z,102.40
2018-09-06T09:56:59.189Z,89.50
2018-09-06T09:59:27.574Z,88.27
2018-09-06T10:02:01.288Z,82.70
2018-09-06T10:05:39.034Z,137.97
2018-09-06T10:08:12.598Z,81.40
2018-09-06T10:10:41.199Z,100.60
2018-09-06T10:13:09.868Z,93.17
2018-09-06T10:15:38.290Z,88.87
2018-09-06T10:18:06.741Z,79.67
2018-09-06T10:20:35.028Z,88.47
2018-09-06T10:23:03.521Z,81.83
2018-09-06T10:25:31.797Z,74.77
2018-09-06T10:28:00.087Z,75.57
2018-09-06T10:30:28.382Z,71.87
2018-09-06T10:32:56.680Z,69.03
2018-09-06T10:35:25.274Z,70.60
2018-09-06T10:37:53.515Z,63.50
2018-09-06T10:40:21.879Z,60.03
2018-09-06T10:42:50.156Z,63.57
2018-09-06T10:45:18.600Z,89.50
2018-09-06T10:47:46.949Z,63.27
2018-09-06T10:50:15.186Z,70.93
2018-09-06T10:52:43.463Z,77.03
2018-09-06T10:55:11.750Z,74.77
2018-09-06T10:57:40.031Z,83.30
2018-09-06T11:00:08.279Z,75.77
2018-09-06T11:02:36.551Z,68.93
2018-09-06T11:05:05.117Z,67.53
2018-09-06T11:07:33.432Z,67.90
2018-09-06T11:10:01.719Z,63.07
2018-09-06T11:12:29.983Z,61.93
2018-09-06T11:14:58.318Z,57.33
2018-09-06T11:17:26.577Z,60.60
2018-09-06T11:19:54.864Z,54.87
2018-09-06T11:22:24.098Z,51.67
2018-09-06T11:24:52.312Z,49.40
2018-09-06T11:27:20.633Z,53.83
2018-09-06T11:29:48.858Z,55.37
2018-09-06T11:32:17.264Z,137.57
2018-09-06T11:34:45.545Z,86.37
2018-09-06T11:37:13.819Z,76.53
2018-09-06T11:39:42.132Z,78.97
2018-09-06T11:42:10.459Z,74.73
2018-09-06T11:44:38.778Z,77.73
2018-09-06T11:47:07.061Z,91.90
2018-09-06T11:49:35.362Z,111.97
2018-09-06T11:52:03.785Z,66.33
2018-09-06T11:54:32.282Z,58.60
2018-09-06T11:57:00.637Z,60.33
2018-09-06T11:59:28.910Z,72.63
2018-09-06T12:01:57.214Z,77.67
2018-09-06T12:04:25.580Z,109.40
2018-09-06T12:06:53.913Z,111.20
2018-09-06T12:09:22.174Z,89.60
2018-09-06T12:11:50.451Z,79.43
2018-09-06T12:14:18.719Z,75.43
2018-09-06T12:16:47.024Z,74.27
2018-09-06T12:19:15.300Z,69.93
2018-09-06T12:21:43.608Z,98.27
2018-09-06T12:24:12.072Z,76.13
2018-09-06T12:26:40.351Z,82.17
2018-09-06T12:29:08.620Z,106.53
2018-09-06T12:31:36.997Z,102.37
2018-09-06T12:34:05.291Z,123.77
2018-09-06T12:36:33.607Z,119.13
2018-09-06T12:39:01.907Z,105.40
2018-09-06T12:41:30.183Z,96.97
2018-09-06T12:43:58.798Z,101.03
2018-09-06T12:46:27.075Z,91.87
2018-09-06T12:48:55.355Z,102.77
2018-09-06T12:51:23.655Z,119.53
2018-09-06T12:53:52.132Z,113.13
2018-09-06T12:56:20.439Z,104.83
2018-09-06T12:58:48.741Z,91.57
2018-09-06T13:01:17.065Z,105.20
2018-09-06T13:03:45.343Z,107.43
2018-09-06T13:06:13.620Z,96.90
2018-09-06T13:08:42.075Z,89.23
2018-09-06T13:11:10.409Z,83.83
2018-09-06T13:13:38.719Z,78.77
2018-09-06T13:16:07.148Z,78.17
2018-09-06T13:18:35.656Z,70.43
2018-09-06T13:21:03.891Z,71.23
2018-09-06T13:23:32.174Z,66.87
2018-09-06T13:26:00.442Z,66.97
2018-09-06T13:28:28.974Z,53.80
2018-09-06T13:30:57.313Z,53.73
2018-09-06T13:33:25.604Z,47.20
2018-09-06T13:35:53.936Z,53.13
2018-09-06T13:38:22.279Z,45.70
2018-09-06T13:40:50.585Z,47.30
2018-09-06T13:43:19.125Z,60.63
2018-09-06T13:45:47.406Z,39.23
2018-09-06T13:48:16.116Z,42.97
2018-09-06T13:50:44.416Z,41.87
2018-09-06T13:53:12.712Z,48.33
2018-09-06T13:55:41.016Z,48.33
2018-09-06T13:58:09.364Z,43.10
2018-09-06T14:00:38.094Z,41.60
2018-09-06T14:03:06.358Z,39.40
2018-09-06T14:05:34.694Z,39.27
2018-09-06T14:08:02.994Z,38.97
2018-09-06T14:10:31.299Z,57.23
2018-09-06T14:12:59.597Z,68.17
2018-09-06T14:15:27.895Z,62.17
2018-09-06T14:17:56.180Z,64.93
2018-09-06T14:20:24.476Z,55.33
2018-09-06T14:22:52.761Z,48.97
2018-09-06T14:25:21.068Z,52.53
2018-09-06T14:27:49.339Z,48.83
2018-09-06T14:30:17.668Z,46.37
2018-09-06T14:32:46.005Z,56.13
2018-09-06T14:35:14.457Z,74.43
2018-09-06T14:37:42.816Z,55.83
2018-09-06T14:40:11.090Z,45.47
2018-09-06T14:42:39.371Z,41.63
2018-09-06T14:45:07.639Z,40.93
2018-09-06T14:47:35.936Z,38.87
2018-09-06T14:50:04.912Z,40.57
2018-09-06T14:52:33.199Z,40.60
2018-09-06T14:55:01.546Z,41.90
2018-09-06T14:57:29.852Z,60.03
2018-09-06T14:59:58.219Z,63.13
2018-09-06T15:02:26.502Z,53.87
2018-09-06T15:04:54.785Z,45.67
2018-09-06T15:07:23.160Z,59.70
2018-09-06T15:09:51.457Z,67.30
2018-09-06T15:12:19.725Z,70.63
2018-09-06T15:14:48.100Z,66.17
2018-09-06T15:17:16.390Z,62.07
2018-09-06T15:19:44.708Z,56.60
2018-09-06T15:22:13.127Z,53.17
2018-09-06T15:24:41.491Z,66.73
2018-09-06T15:27:09.807Z,81.27
2018-09-06T15:29:38.091Z,63.43
2018-09-06T15:32:06.640Z,50.93
2018-09-06T15:34:34.981Z,55.17
2018-09-06T15:37:03.230Z,51.77
2018-09-06T15:39:31.551Z,45.03
2018-09-06T15:41:59.859Z,65.83
2018-09-06T15:44:28.294Z,49.77
2018-09-06T15:46:56.618Z,51.57
2018-09-06T15:49:24.922Z,44.17
2018-09-06T15:51:53.202Z,41.53
2018-09-06T15:54:21.497Z,36.10
2018-09-06T15:56:49.760Z,39.37
2018-09-06T15:59:18.043Z,38.90
2018-09-06T16:01:46.325Z,39.77
2018-09-06T16:04:14.618Z,36.20
2018-09-06T16:06:42.897Z,31.77
2018-09-06T16:09:11.172Z,34.97
2018-09-06T16:11:39.461Z,31.93
2018-09-06T16:14:07.741Z,26.90
2018-09-06T16:16:36.055Z,23.80
2018-09-06T16:19:04.404Z,25.10
2018-09-06T16:21:32.715Z,26.83
2018-09-06T16:24:01.122Z,22.57
2018-09-06T16:26:29.358Z,21.90
2018-09-06T16:28:57.654Z,21.33
2018-09-06T16:31:25.936Z,23.23
2018-09-06T16:33:54.225Z,21.07
2018-09-06T16:36:22.492Z,27.77
2018-09-06T16:38:50.796Z,61.70
2018-09-06T16:41:19.079Z,75.53
2018-09-06T16:43:47.396Z,57.13
2018-09-06T16:46:15.685Z,120.00
2018-09-06T16:48:43.975Z,79.57
2018-09-06T16:51:12.252Z,59.40
2018-09-06T16:53:40.587Z,114.47
2018-09-06T16:56:08.920Z,141.77
2018-09-06T16:58:37.228Z,152.83
2018-09-06T17:01:05.678Z,119.73
2018-09-06T17:03:33.978Z,92.63
2018-09-06T17:06:02.290Z,91.60
2018-09-06T17:08:30.565Z,87.87
2018-09-06T17:10:58.853Z,94.57
2018-09-06T17:13:27.163Z,93.57
2018-09-06T17:15:55.470Z,99.97
2018-09-06T17:18:23.804Z,223.53
2018-09-06T17:20:52.099Z,211.17
2018-09-06T17:23:20.452Z,173.83
2018-09-06T17:25:48.746Z,162.90
2018-09-06T17:28:17.042Z,157.90
2018-09-06T17:30:45.321Z,152.30
2018-09-06T17:33:13.678Z,157.27
2018-09-06T17:35:41.906Z,155.67
2018-09-06T17:38:10.214Z,148.40
2018-09-06T17:40:38.496Z,145.23
2018-09-06T17:43:06.810Z,149.60
2018-09-06T17:45:35.276Z,143.33
2018-09-06T17:48:03.551Z,144.53
2018-09-06T17:50:32.013Z,138.57
2018-09-06T17:53:00.313Z,136.43
2018-09-06T17:55:28.654Z,131.47
2018-09-06T17:57:56.934Z,131.87
2018-09-06T18:00:25.282Z,132.07
2018-09-06T18:02:53.581Z,131.00
2018-09-06T18:05:21.895Z,121.93
2018-09-06T18:07:50.191Z,125.80
2018-09-06T18:10:18.482Z,123.87
2018-09-06T18:12:47.099Z,116.97
2018-09-06T18:15:15.387Z,124.40
2018-09-06T18:17:43.820Z,118.17
2018-09-06T18:20:11.991Z,116.20
2018-09-06T18:22:40.283Z,145.43
2018-09-06T18:25:08.602Z,128.63
2018-09-06T18:27:36.898Z,130.93
2018-09-06T18:30:05.201Z,149.87
2018-09-06T18:32:33.631Z,173.80
2018-09-06T18:35:01.927Z,248.27
2018-09-06T18:37:30.305Z,205.17
2018-09-06T18:39:58.549Z,158.43
2018-09-06T18:42:26.858Z,161.30
2018-09-06T18:44:55.223Z,162.73
2018-09-06T18:47:24.600Z,165.40
2018-09-06T18:49:52.895Z,161.83
2018-09-06T18:52:21.195Z,161.03
2018-09-06T18:54:49.544Z,232.33
2018-09-06T18:57:17.831Z,223.13
2018-09-06T18:59:46.110Z,238.30
2018-09-06T19:02:14.613Z,269.90
2018-09-06T19:04:42.804Z,235.93
2018-09-06T19:07:11.080Z,211.70
2018-09-06T19:09:39.354Z,204.73
2018-09-06T19:12:07.675Z,198.80
2018-09-06T19:14:35.980Z,198.40
2018-09-06T19:17:04.290Z,196.20
2018-09-06T19:19:32.568Z,191.83
2018-09-06T19:22:00.945Z,196.73
2018-09-06T19:24:29.290Z,199.03
2018-09-06T19:26:57.650Z,243.27
2018-09-06T19:29:25.931Z,219.67
2018-09-06T19:31:54.280Z,214.13
2018-09-06T19:34:22.494Z,220.60
2018-09-06T19:36:50.782Z,263.97
2018-09-06T19:39:19.089Z,234.27
2018-09-06T19:41:47.363Z,218.37
2018-09-06T19:44:15.685Z,213.37
2018-09-06T19:46:44.058Z,224.30
2018-09-06T19:49:12.342Z,208.87
2018-09-06T19:51:40.636Z,210.60
2018-09-06T19:54:08.924Z,224.17
2018-09-06T19:56:37.247Z,246.83
2018-09-06T19:59:05.566Z,263.60
2018-09-06T20:01:33.853Z,251.70
2018-09-06T20:04:02.182Z,229.07
2018-09-06T20:06:30.490Z,237.17
2018-09-06T20:08:58.760Z,233.70
2018-09-06T20:11:27.060Z,224.77
2018-09-06T20:13:55.370Z,228.53
2018-09-06T20:16:23.639Z,217.87
2018-09-06T20:18:51.955Z,209.00
2018-09-06T20:21:20.222Z,202.10
2018-09-06T20:23:48.523Z,194.60
2018-09-06T20:26:16.860Z,109.73
2018-09-06T20:28:45.117Z,50.10
2018-09-06T20:31:13.393Z,34.87
2018-09-06T20:33:42.047Z,27.77
2018-09-06T20:36:10.277Z,13.70
2018-09-06T20:38:38.636Z,12.57
2018-09-06T20:41:06.910Z,10.77
2018-09-06T20:43:35.217Z,11.00
2018-09-06T20:46:03.611Z,11.30
2018-09-06T20:48:31.916Z,40.40
2018-09-06T20:51:00.362Z,26.10
2018-09-06T20:53:28.700Z,15.07
2018-09-06T20:55:57.158Z,13.30
2018-09-06T20:58:25.488Z,47.57
2018-09-06T21:00:54.106Z,24.63
2018-09-06T21:03:22.581Z,15.53
2018-09-06T21:05:50.950Z,28.43
2018-09-06T21:08:19.435Z,14.63
2018-09-06T21:10:47.864Z,14.03
2018-09-06T21:13:16.303Z,9.47
2018-09-06T21:15:44.632Z,9.97
2018-09-06T21:18:13.148Z,21.67
2018-09-06T21:20:41.467Z,11.67
2018-09-06T21:23:09.810Z,27.50
2018-09-06T21:25:38.323Z,12.57
2018-09-06T21:28:06.702Z,8.70
2018-09-06T21:30:35.104Z,7.73
2018-09-06T21:33:03.471Z,10.43
2018-09-06T21:35:31.829Z,19.03
2018-09-06T21:38:00.239Z,11.43
2018-09-06T21:40:28.824Z,6.87
2018-09-06T21:42:57.136Z,8.73
2018-09-06T21:45:25.415Z,17.77
2018-09-06T21:47:54.077Z,15.97
2018-09-06T21:50:22.542Z,11.40
2018-09-06T21:52:50.959Z,9.83
2018-09-06T21:55:19.687Z,10.63
2018-09-06T21:57:48.031Z,11.57
2018-09-06T22:00:16.399Z,6.53
2018-09-06T22:02:50.183Z,7.60
2018-09-06T22:05:18.473Z,16.37
2018-09-06T22:07:46.773Z,8.43
2018-09-06T22:10:15.094Z,8.60
2018-09-06T22:12:43.448Z,10.10
2018-09-06T22:15:11.727Z,11.43
2018-09-06T22:17:39.987Z,12.90
2018-09-06T22:20:08.268Z,9.37
2018-09-06T22:22:36.562Z,10.53
2018-09-06T22:25:04.885Z,12.00
2018-09-06T22:27:33.243Z,18.53
2018-09-06T22:30:01.551Z,10.87
2018-09-06T22:32:29.886Z,14.23
2018-09-06T22:34:58.210Z,13.17
2018-09-06T22:37:26.554Z,14.27
2018-09-06T22:39:56.820Z,15.47
2018-09-06T22:42:25.160Z,16.33
2018-09-06T22:44:53.442Z,11.60
2018-09-06T22:47:21.947Z,11.83
2018-09-06T22:49:50.247Z,11.17
2018-09-06T22:52:18.581Z,10.83
2018-09-06T22:54:46.904Z,11.63
2018-09-06T22:57:15.228Z,9.37
2018-09-06T22:59:43.647Z,10.07
2018-09-06T23:02:11.985Z,24.47
2018-09-06T23:04:40.272Z,58.07
2018-09-06T23:07:08.625Z,45.93
2018-09-06T23:09:36.921Z,46.30
2018-09-06T23:12:05.240Z,47.10
2018-09-06T23:14:33.645Z,58.80
2018-09-06T23:17:02.007Z,56.00
2018-09-06T23:19:30.392Z,69.03
2018-09-06T23:21:58.717Z,79.23
2018-09-06T23:24:27.080Z,59.67
2018-09-06T23:26:55.386Z,54.27
2018-09-06T23:29:23.696Z,50.53
2018-09-06T23:31:51.992Z,52.90
2018-09-06T23:34:20.271Z,44.83
2018-09-06T23:36:48.576Z,51.37
2018-09-06T23:39:16.887Z,46.97
2018-09-06T23:41:45.211Z,54.53
2018-09-06T23:44:13.571Z,168.80
2018-09-06T23:46:41.908Z,126.97
2018-09-06T23:49:10.220Z,125.07
2018-09-06T23:51:38.612Z,83.07
2018-09-06T23:54:07.157Z,68.63
2018-09-06T23:56:35.499Z,59.73
2018-09-06T23:59:03.842Z,67.93
